Time;durP1;ratioP1;P1;durP2;ratioP2;P2;SDS_P1;SDS_P2;PMS_P1;PMS_P2;Temp;Humidity;BMP_temperature;BMP_pressure;BME280_temperature;BME280_humidity;BME280_pressure;Samples;Min_cycle;Max_cycle;Signal;HPM_P1;HPM_P2
2023/05/10 00:01:24;;;;;;;8.70;7.78;;;13.40;99.90;;;;;;5079546;28;20592;-88
2023/05/10 00:03:49;;;;;;;9.25;8.25;;;13.30;99.90;;;;;;5094937;28;20052;-89
2023/05/10 00:06:15;;;;;;;12.20;7.82;;;13.30;99.90;;;;;;5095519;28;20107;-89
2023/05/10 00:08:41;;;;;;;8.18;7.22;;;13.30;99.90;;;;;;5095044;28;20144;-89
2023/05/10 00:11:07;;;;;;;8.65;7.75;;;13.30;99.90;;;;;;5110552;28;20047;-89
2023/05/10 00:13:33;;;;;;;7.65;6.93;;;13.20;99.90;;;;;;5093979;28;20066;-90
2023/05/10 00:15:59;;;;;;;8.80;7.30;;;13.20;99.90;;;;;;5110473;28;20039;-90
2023/05/10 00:18:25;;;;;;;9.07;7.82;;;13.20;99.90;;;;;;5076219;28;20131;-90
2023/05/10 00:20:51;;;;;;;8.65;7.38;;;13.20;99.90;;;;;;5112607;28;20054;-90
2023/05/10 00:23:16;;;;;;;9.10;7.75;;;13.10;99.90;;;;;;5110293;28;20046;-89
2023/05/10 00:25:42;;;;;;;10.00;7.90;;;13.10;99.90;;;;;;5080145;28;20047;-88
2023/05/10 00:28:08;;;;;;;8.82;7.03;;;13.20;99.90;;;;;;5096304;28;20056;-90
2023/05/10 00:30:33;;;;;;;8.13;6.60;;;13.10;99.90;;;;;;5095762;28;20043;-90
2023/05/10 00:33:00;;;;;;;9.40;6.38;;;13.10;99.90;;;;;;5096990;28;20404;-90
2023/05/10 00:35:25;;;;;;;7.75;6.65;;;13.00;99.90;;;;;;5094884;28;20035;-90
2023/05/10 00:37:51;;;;;;;8.55;6.65;;;13.00;99.90;;;;;;5097118;28;20039;-90
2023/05/10 00:40:17;;;;;;;9.32;6.75;;;13.00;99.90;;;;;;5112343;28;20036;-88
2023/05/10 00:42:43;;;;;;;9.10;6.47;;;13.10;99.90;;;;;;5093242;28;20043;-89
2023/05/10 00:45:09;;;;;;;6.55;5.80;;;13.00;99.90;;;;;;5091386;28;20107;-89
2023/05/10 00:47:35;;;;;;;6.70;5.97;;;13.00;99.90;;;;;;5092091;28;20048;-89
2023/05/10 00:50:01;;;;;;;7.15;6.30;;;13.00;99.90;;;;;;5092107;28;20100;-89
2023/05/10 00:52:29;;;;;;;8.02;6.28;;;12.90;99.90;;;;;;5091414;28;20529;-90
2023/05/10 00:54:55;;;;;;;6.53;5.60;;;12.90;99.90;;;;;;5091931;28;20043;-90
2023/05/10 00:57:21;;;;;;;7.80;6.28;;;13.00;99.90;;;;;;5111387;28;20035;-91
2023/05/10 00:59:47;;;;;;;7.82;6.50;;;13.90;99.90;;;;;;5096450;28;20050;-90
2023/05/10 01:02:14;;;;;;;6.57;5.57;;;13.00;99.90;;;;;;5094067;28;20040;-90
2023/05/10 01:04:40;;;;;;;6.50;5.72;;;12.90;99.90;;;;;;5074304;28;20120;-90
2023/05/10 01:07:06;;;;;;;8.95;6.30;;;12.90;99.90;;;;;;5107395;27;20051;-91
2023/05/10 01:09:32;;;;;;;6.65;5.78;;;12.90;99.90;;;;;;5107080;28;20039;-91
2023/05/10 01:11:59;;;;;;;7.50;6.10;;;13.00;99.90;;;;;;5090851;28;20042;-90
2023/05/10 01:14:25;;;;;;;6.50;5.72;;;12.90;99.90;;;;;;5089572;28;20043;-90
2023/05/10 01:16:53;;;;;;;6.60;5.90;;;12.90;99.90;;;;;;5091199;28;20050;-91
2023/05/10 01:19:22;;;;;;;8.07;6.35;;;12.90;99.90;;;;;;5090399;28;20114;-91
2023/05/10 01:22:00;;;;;;;6.05;5.40;;;12.80;99.90;;;;;;5107316;28;20048;-91
2023/05/10 01:24:54;;;;;;;8.07;6.80;;;12.90;99.90;;;;;;5091183;28;20392;-90
2023/05/10 01:27:40;;;;;;;6.43;5.65;;;12.90;99.90;;;;;;5107333;28;20071;-90
2023/05/10 01:30:06;;;;;;;7.38;5.93;;;12.90;99.90;;;;;;5077720;28;20044;-90
2023/05/10 01:32:45;;;;;;;7.40;6.43;;;12.80;99.90;;;;;;5107666;28;20125;-90
2023/05/10 01:35:26;;;;;;;8.10;6.90;;;12.90;99.90;;;;;;5107367;28;20446;-91
2023/05/10 01:38:05;;;;;;;8.73;6.40;;;12.80;99.90;;;;;;5086104;28;20059;-89
2023/05/10 01:40:37;;;;;;;7.90;6.22;;;12.80;99.90;;;;;;5090182;28;20060;-90
2023/05/10 01:43:10;;;;;;;8.40;6.28;;;12.80;99.90;;;;;;5107750;28;20044;-91
2023/05/10 01:45:44;;;;;;;7.22;6.45;;;12.80;99.90;;;;;;5108058;28;20039;-90
2023/05/10 01:48:11;;;;;;;7.88;6.60;;;12.80;99.90;;;;;;5105996;28;20087;-91
2023/05/10 01:50:42;;;;;;;11.07;6.30;;;12.80;99.90;;;;;;5090211;28;20080;-91
2023/05/10 01:53:11;;;;;;;6.20;5.40;;;12.70;99.90;;;;;;5106368;28;20412;-91
2023/05/10 01:55:49;;;;;;;8.27;6.22;;;12.70;99.90;;;;;;5107130;28;20364;-91
2023/05/10 01:58:30;;;;;;;7.47;6.50;;;12.70;99.90;;;;;;5107247;28;20051;-91
2023/05/10 02:00:58;;;;;;;9.02;6.57;;;12.70;99.90;;;;;;5089066;28;20044;-90
2023/05/10 02:03:27;;;;;;;7.25;6.22;;;12.60;99.90;;;;;;5090267;28;20079;-91
2023/05/10 02:05:54;;;;;;;7.57;6.20;;;12.70;99.90;;;;;;5105649;28;20051;-90
2023/05/10 02:08:22;;;;;;;7.30;6.60;;;12.70;99.90;;;;;;5090484;28;20404;-89
2023/05/10 02:10:51;;;;;;;7.90;6.07;;;12.70;99.90;;;;;;5089561;28;20050;-90
2023/05/10 02:13:19;;;;;;;7.25;6.03;;;12.60;99.90;;;;;;5089724;28;20044;-89
2023/05/10 02:15:48;;;;;;;7.45;6.20;;;12.70;99.90;;;;;;5089780;28;20049;-91
2023/05/10 02:18:15;;;;;;;8.48;6.57;;;12.80;99.90;;;;;;5105555;28;20055;-90
2023/05/10 02:20:43;;;;;;;6.93;6.13;;;12.60;99.90;;;;;;5089619;28;20115;-91
2023/05/10 02:23:09;;;;;;;7.05;5.97;;;12.60;99.90;;;;;;5088192;28;20083;-90
2023/05/10 02:25:37;;;;;;;6.53;5.90;;;12.70;99.90;;;;;;5089283;28;20043;-89
2023/05/10 02:28:04;;;;;;;6.25;5.45;;;12.60;99.90;;;;;;5088351;28;20044;-90
2023/05/10 02:30:33;;;;;;;6.28;5.68;;;12.60;99.90;;;;;;5088075;28;20039;-89
2023/05/10 02:32:59;;;;;;;9.70;5.32;;;12.60;99.90;;;;;;5089096;28;20047;-91
2023/05/10 02:35:26;;;;;;;7.45;5.53;;;12.60;99.90;;;;;;5087415;28;20122;-90
2023/05/10 02:37:53;;;;;;;8.35;6.00;;;12.70;99.90;;;;;;5105947;28;20048;-90
2023/05/10 02:40:21;;;;;;;7.22;5.32;;;12.60;99.90;;;;;;5087805;28;20386;-91
2023/05/10 02:42:48;;;;;;;6.68;5.93;;;12.60;99.90;;;;;;5105344;28;20040;-90
2023/05/10 02:45:19;;;;;;;9.30;6.13;;;12.60;99.90;;;;;;5088457;28;20112;-90
2023/05/10 02:47:45;;;;;;;6.65;5.97;;;12.60;99.90;;;;;;5103578;28;20096;-89
2023/05/10 02:50:10;;;;;;;8.27;6.47;;;12.50;99.90;;;;;;5088374;28;20059;-91
2023/05/10 02:52:44;;;;;;;9.75;7.10;;;12.60;99.90;;;;;;5087796;28;20126;-89
2023/05/10 02:55:13;;;;;;;9.18;6.95;;;12.60;99.90;;;;;;5105813;28;20079;-90
2023/05/10 02:58:01;;;;;;;8.45;6.90;;;12.60;99.90;;;;;;5104624;28;20495;-90
2023/05/10 03:00:28;;;;;;;10.13;7.85;;;12.60;99.90;;;;;;5104543;28;20059;-90
2023/05/10 03:02:54;;;;;;;13.23;7.80;;;12.50;99.90;;;;;;5089387;28;20396;-90
2023/05/10 03:05:20;;;;;;;10.98;7.88;;;12.50;99.90;;;;;;5087071;28;20073;-90
2023/05/10 03:07:46;;;;;;;11.98;8.07;;;12.50;99.90;;;;;;5088359;28;20054;-90
2023/05/10 03:10:12;;;;;;;11.70;8.70;;;12.50;99.90;;;;;;5086883;28;20079;-89
2023/05/10 03:13:02;;;;;;;11.73;8.68;;;12.50;99.90;;;;;;5105099;28;20046;-90
2023/05/10 03:15:57;;;;;;;12.93;8.77;;;12.50;99.90;;;;;;5087793;28;20055;-90
2023/05/10 03:18:33;;;;;;;15.23;9.27;;;12.50;99.90;;;;;;5104389;28;20130;-89
2023/05/10 03:21:06;;;;;;;12.43;8.93;;;12.50;99.90;;;;;;5106628;28;20397;-90
2023/05/10 03:23:51;;;;;;;11.82;9.25;;;12.50;99.90;;;;;;5105000;28;20081;-89
2023/05/10 03:26:25;;;;;;;14.55;9.88;;;12.50;99.90;;;;;;5088128;28;20039;-90
2023/05/10 03:28:53;;;;;;;15.15;9.95;;;12.50;99.90;;;;;;5089357;28;20393;-91
2023/05/10 03:31:19;;;;;;;14.70;10.40;;;12.50;99.90;;;;;;5070630;28;20046;-90
2023/05/10 03:33:52;;;;;;;12.80;10.32;;;12.50;99.90;;;;;;5056142;28;20090;-91
2023/05/10 03:36:18;;;;;;;15.00;10.25;;;12.50;99.90;;;;;;5104671;28;20142;-91
2023/05/10 03:38:44;;;;;;;14.32;10.75;;;12.50;99.90;;;;;;5088857;28;20040;-90
2023/05/10 03:41:10;;;;;;;13.57;11.38;;;12.50;99.90;;;;;;5088482;28;20045;-91
2023/05/10 03:43:36;;;;;;;15.32;11.15;;;12.50;99.90;;;;;;5088434;28;20144;-89
2023/05/10 03:46:05;;;;;;;17.17;11.00;;;12.50;99.90;;;;;;5122721;28;20500;-89
2023/05/10 03:48:32;;;;;;;15.70;10.90;;;12.50;99.90;;;;;;5103936;28;20044;-89
2023/05/10 03:50:58;;;;;;;16.33;11.02;;;12.50;99.90;;;;;;5089600;28;20501;-90
2023/05/10 03:53:24;;;;;;;16.48;10.65;;;12.50;99.90;;;;;;5104041;28;20135;-90
2023/05/10 03:55:50;;;;;;;18.02;11.60;;;12.50;99.90;;;;;;5087692;28;20052;-90
2023/05/10 03:58:15;;;;;;;15.13;11.15;;;12.50;99.90;;;;;;5087399;28;20506;-90
2023/05/10 04:00:44;;;;;;;20.52;11.13;;;12.50;99.90;;;;;;5106921;28;20036;-88
2023/05/10 04:03:11;;;;;;;14.52;10.85;;;12.50;99.90;;;;;;5091141;28;20093;-89
2023/05/10 04:05:36;;;;;;;15.85;11.02;;;12.50;99.90;;;;;;5090198;28;20048;-91
2023/05/10 04:08:03;;;;;;;13.27;9.07;;;12.50;99.90;;;;;;5091873;28;20082;-89
2023/05/10 04:10:28;;;;;;;11.68;8.70;;;12.50;99.90;;;;;;5073144;28;20032;-91
2023/05/10 04:12:54;;;;;;;11.68;8.13;;;12.90;99.90;;;;;;5108578;28;20089;-91
2023/05/10 04:15:20;;;;;;;10.73;7.45;;;12.80;99.90;;;;;;5074964;28;20044;-90
2023/05/10 04:17:46;;;;;;;10.98;6.90;;;12.40;99.90;;;;;;5073328;28;20044;-89
2023/05/10 04:20:12;;;;;;;8.38;6.72;;;12.40;99.90;;;;;;5074019;28;20050;-90
2023/05/10 04:22:38;;;;;;;10.52;6.20;;;12.40;99.90;;;;;;5106868;28;20035;-91
2023/05/10 04:25:04;;;;;;;8.10;6.32;;;12.40;99.90;;;;;;5091951;28;20096;-90
2023/05/10 04:27:30;;;;;;;5.72;4.43;;;12.40;99.90;;;;;;5108024;28;20055;-90
2023/05/10 04:29:57;;;;;;;5.82;4.93;;;12.40;99.90;;;;;;5091270;28;20035;-91
2023/05/10 04:32:23;;;;;;;5.70;5.03;;;12.40;99.90;;;;;;5091682;28;20040;-90
2023/05/10 04:34:49;;;;;;;7.90;4.38;;;12.40;99.90;;;;;;5107663;28;20078;-89
2023/05/10 04:37:14;;;;;;;6.43;4.65;;;12.30;99.90;;;;;;5108402;28;20048;-90
2023/05/10 04:39:40;;;;;;;7.03;4.30;;;12.40;99.90;;;;;;5089851;28;20564;-89
2023/05/10 04:42:06;;;;;;;7.78;4.45;;;12.40;99.90;;;;;;5091665;28;20068;-89
2023/05/10 04:44:35;;;;;;;6.20;4.68;;;12.40;99.90;;;;;;5089296;28;20043;-89
2023/05/10 04:47:02;;;;;;;5.85;4.20;;;12.40;99.90;;;;;;5108717;28;20141;-88
2023/05/10 04:49:28;;;;;;;5.25;4.22;;;13.10;99.90;;;;;;5091053;28;20396;-90
2023/05/10 04:51:54;;;;;;;6.18;4.30;;;12.40;99.90;;;;;;5089945;28;20488;-91
2023/05/10 04:54:19;;;;;;;6.00;4.10;;;12.30;99.90;;;;;;5090499;28;20092;-92
2023/05/10 04:56:45;;;;;;;4.95;4.43;;;12.40;99.90;;;;;;5072137;28;20036;-89
2023/05/10 04:59:11;;;;;;;4.78;4.28;;;12.40;99.90;;;;;;5090651;28;20163;-88
2023/05/10 05:01:36;;;;;;;5.53;3.95;;;12.40;99.90;;;;;;5088845;28;20039;-87
2023/05/10 05:04:02;;;;;;;7.40;4.47;;;12.40;99.90;;;;;;5091159;28;20211;-89
2023/05/10 05:06:28;;;;;;;4.93;3.95;;;12.40;99.90;;;;;;5072575;28;20050;-91
2023/05/10 05:08:54;;;;;;;7.68;3.97;;;12.40;99.90;;;;;;5089976;28;20035;-91
2023/05/10 05:11:20;;;;;;;5.88;3.30;;;12.30;99.90;;;;;;5090217;28;20053;-88
2023/05/10 05:13:46;;;;;;;4.00;3.60;;;11.20;99.90;;;;;;5088799;28;20040;-90
2023/05/10 05:16:12;;;;;;;4.57;3.75;;;12.40;99.90;;;;;;5089961;28;20051;-83
2023/05/10 05:18:38;;;;;;;6.75;4.10;;;12.40;99.90;;;;;;5088117;28;20039;-82
2023/05/10 05:21:12;;;;;;;4.63;3.45;;;12.40;99.90;;;;;;5089853;28;20035;-83
2023/05/10 05:23:38;;;;;;;5.50;3.50;;;12.40;99.90;;;;;;5091169;28;20079;-85
2023/05/10 05:26:04;;;;;;;5.15;3.67;;;12.40;99.90;;;;;;5072169;28;20535;-88
2023/05/10 05:28:32;;;;;;;4.45;3.33;;;12.40;99.90;;;;;;5090112;28;20104;-91
2023/05/10 05:30:58;;;;;;;5.50;3.58;;;12.40;99.90;;;;;;5088998;28;20051;-89
2023/05/10 05:33:24;;;;;;;5.75;3.50;;;12.00;99.90;;;;;;5089916;28;20039;-90
2023/05/10 05:35:50;;;;;;;4.03;3.63;;;12.40;99.90;;;;;;5088249;28;20087;-89
2023/05/10 05:38:17;;;;;;;5.88;3.30;;;12.50;99.90;;;;;;5090325;28;20440;-91
2023/05/10 05:40:43;;;;;;;5.10;3.72;;;12.60;99.90;;;;;;5089396;28;20036;-90
2023/05/10 05:43:08;;;;;;;3.92;3.15;;;12.50;99.90;;;;;;5089377;28;20504;-88
2023/05/10 05:45:34;;;;;;;4.32;3.20;;;12.50;99.90;;;;;;5072084;28;20262;-92
2023/05/10 05:48:00;;;;;;;3.95;3.40;;;12.50;99.90;;;;;;5071687;28;20568;-90
2023/05/10 05:50:26;;;;;;;3.70;3.22;;;12.50;99.90;;;;;;5107277;28;20129;-91
2023/05/10 05:52:51;;;;;;;6.50;4.05;;;12.50;99.90;;;;;;5088365;28;20405;-93
2023/05/10 05:55:17;;;;;;;3.28;2.75;;;12.60;99.90;;;;;;5090099;28;20065;-88
2023/05/10 05:57:43;;;;;;;4.18;2.85;;;12.60;99.90;;;;;;5105310;28;20050;-89
2023/05/10 06:00:09;;;;;;;9.25;3.28;;;12.60;99.90;;;;;;5072290;28;20523;-89
2023/05/10 06:02:35;;;;;;;3.05;2.10;;;12.60;99.90;;;;;;5088524;28;20055;-89
2023/05/10 06:05:00;;;;;;;3.00;2.22;;;12.60;99.90;;;;;;5088492;28;20039;-90
2023/05/10 06:07:26;;;;;;;3.03;2.22;;;12.60;99.90;;;;;;5105729;28;20035;-90
2023/05/10 06:09:52;;;;;;;2.72;1.90;;;12.60;99.90;;;;;;5087821;28;20035;-89
2023/05/10 06:12:17;;;;;;;1.77;1.27;;;12.60;99.90;;;;;;5072398;28;20126;-88
2023/05/10 06:14:43;;;;;;;1.05;0.93;;;12.60;99.90;;;;;;5104435;28;20500;-88
2023/05/10 06:17:09;;;;;;;1.20;1.10;;;12.60;99.90;;;;;;5072086;28;20035;-90
2023/05/10 06:19:34;;;;;;;2.05;0.70;;;12.60;99.90;;;;;;5071207;28;20047;-89
2023/05/10 06:22:00;;;;;;;0.57;0.57;;;12.60;99.90;;;;;;5070737;28;20074;-88
2023/05/10 06:24:27;;;;;;;1.33;0.70;;;12.60;99.90;;;;;;5105309;28;20051;-89
2023/05/10 06:26:53;;;;;;;0.50;0.50;;;12.50;99.90;;;;;;5087116;28;20051;-87
2023/05/10 06:29:18;;;;;;;0.75;0.47;;;12.60;99.90;;;;;;5071856;28;20043;-87
2023/05/10 06:31:45;;;;;;;4.13;3.10;;;12.50;99.90;;;;;;5070995;28;20063;-87
2023/05/10 06:34:11;;;;;;;1.73;1.00;;;12.50;99.90;;;;;;5105601;28;20180;-90
2023/05/10 06:36:37;;;;;;;1.40;1.25;;;12.50;99.90;;;;;;5104719;27;20048;-87
2023/05/10 06:39:03;;;;;;;3.20;1.80;;;12.50;99.90;;;;;;5104522;28;20560;-88
2023/05/10 06:41:28;;;;;;;4.65;2.08;;;12.40;99.90;;;;;;5087848;28;20085;-87
2023/05/10 06:43:54;;;;;;;5.00;4.15;;;12.40;99.90;;;;;;5087115;28;20050;-87
2023/05/10 06:46:20;;;;;;;8.55;6.10;;;12.40;99.90;;;;;;5088194;28;20504;-87
2023/05/10 06:48:45;;;;;;;10.00;6.13;;;12.40;99.90;;;;;;5086568;28;20093;-87
2023/05/10 06:51:11;;;;;;;7.47;6.55;;;12.40;99.90;;;;;;5088296;28;20051;-88
2023/05/10 06:53:37;;;;;;;7.43;6.35;;;12.40;99.90;;;;;;5086422;28;20570;-86
2023/05/10 06:56:03;;;;;;;7.65;6.70;;;12.30;99.90;;;;;;5104721;28;20058;-88
2023/05/10 06:58:28;;;;;;;9.35;8.35;;;12.30;99.90;;;;;;5070362;28;20044;-86
2023/05/10 07:00:54;;;;;;;11.63;8.85;;;12.30;99.90;;;;;;5103201;28;20039;-87
2023/05/10 07:03:20;;;;;;;11.88;8.57;;;12.30;99.90;;;;;;5070581;28;20702;-88
2023/05/10 07:05:45;;;;;;;13.50;9.48;;;12.30;99.90;;;;;;5085701;28;20046;-86
2023/05/10 07:08:11;;;;;;;10.85;8.55;;;12.30;99.90;;;;;;5088053;28;20047;-87
2023/05/10 07:10:37;;;;;;;12.48;8.82;;;12.40;99.90;;;;;;5086239;28;20535;-86
2023/05/10 07:13:03;;;;;;;13.43;8.82;;;12.40;99.90;;;;;;5087437;28;20507;-87
2023/05/10 07:15:29;;;;;;;8.85;6.88;;;12.40;99.90;;;;;;5103509;28;20048;-86
2023/05/10 07:17:55;;;;;;;10.50;6.22;;;12.40;99.90;;;;;;5086810;28;20048;-87
2023/05/10 07:20:21;;;;;;;8.23;5.60;;;12.40;99.90;;;;;;5104338;28;20044;-86
2023/05/10 07:22:46;;;;;;;6.47;4.80;;;12.40;99.90;;;;;;5085908;28;20055;-86
2023/05/10 07:25:12;;;;;;;5.43;4.40;;;12.40;99.90;;;;;;5104864;28;20472;-86
2023/05/10 07:27:38;;;;;;;10.55;4.18;;;12.40;99.90;;;;;;5102485;28;20055;-86
2023/05/10 07:30:04;;;;;;;7.85;3.85;;;12.40;99.90;;;;;;5087141;28;20105;-86
2023/05/10 07:32:30;;;;;;;6.15;3.58;;;13.60;99.90;;;;;;5103345;28;20058;-86
2023/05/10 07:34:56;;;;;;;4.65;2.35;;;12.50;99.90;;;;;;5090540;28;20130;-88
2023/05/10 07:37:21;;;;;;;4.00;2.25;;;12.60;99.90;;;;;;5091762;28;20086;-87
2023/05/10 07:39:47;;;;;;;3.10;2.28;;;12.60;99.90;;;;;;5090288;28;20035;-87
2023/05/10 07:42:13;;;;;;;2.92;1.60;;;12.60;99.90;;;;;;5108613;28;20075;-87
2023/05/10 07:44:38;;;;;;;1.83;1.50;;;12.70;99.90;;;;;;5072635;28;20036;-86
2023/05/10 07:47:04;;;;;;;3.50;1.75;;;12.70;99.90;;;;;;5091480;28;20043;-87
2023/05/10 07:49:30;;;;;;;2.55;1.50;;;12.70;99.90;;;;;;5090372;28;20051;-88
2023/05/10 07:51:55;;;;;;;2.50;1.30;;;12.80;99.90;;;;;;5090590;28;20043;-87
2023/05/10 07:54:21;;;;;;;2.78;1.20;;;12.80;99.90;;;;;;5074505;28;20040;-87
2023/05/10 07:56:47;;;;;;;1.67;1.30;;;12.90;99.90;;;;;;5089539;28;20040;-87
2023/05/10 07:59:17;;;;;;;2.55;1.80;;;12.90;99.90;;;;;;5092069;28;20055;-86
2023/05/10 08:01:43;;;;;;;1.85;1.30;;;12.90;99.90;;;;;;5090320;28;20043;-87
2023/05/10 08:04:09;;;;;;;3.50;1.80;;;12.80;99.90;;;;;;5092683;28;20085;-86
2023/05/10 08:06:35;;;;;;;2.08;1.88;;;12.90;99.90;;;;;;5108583;28;20044;-88
2023/05/10 08:09:01;;;;;;;2.25;1.98;;;12.90;99.90;;;;;;5092013;28;20048;-86
2023/05/10 08:11:27;;;;;;;3.35;1.67;;;12.90;99.90;;;;;;5093759;28;20046;-86
2023/05/10 08:13:53;;;;;;;4.25;1.77;;;12.90;99.90;;;;;;5092470;28;20046;-87
2023/05/10 08:16:20;;;;;;;2.05;1.85;;;12.90;99.90;;;;;;5110072;28;20047;-88
2023/05/10 08:18:46;;;;;;;3.15;2.33;;;12.90;99.90;;;;;;5125270;27;20131;-87
2023/05/10 08:21:13;;;;;;;3.65;2.55;;;12.90;99.90;;;;;;5092377;28;20048;-87
2023/05/10 08:23:39;;;;;;;3.03;2.45;;;12.90;99.90;;;;;;5090064;28;20400;-87
2023/05/10 08:26:05;;;;;;;4.90;2.47;;;12.90;99.90;;;;;;5090195;28;20051;-87
2023/05/10 08:28:31;;;;;;;3.42;2.67;;;12.90;99.90;;;;;;5090352;28;20058;-87
2023/05/10 08:30:56;;;;;;;3.38;2.20;;;12.90;99.90;;;;;;5105812;28;20047;-88
2023/05/10 08:33:22;;;;;;;4.28;3.45;;;12.90;99.90;;;;;;5108447;28;20035;-86
2023/05/10 08:35:48;;;;;;;2.92;2.63;;;12.90;99.90;;;;;;5088698;28;20515;-87
2023/05/10 08:38:14;;;;;;;2.95;2.53;;;12.90;99.90;;;;;;5090707;28;20035;-86
2023/05/10 08:40:42;;;;;;;4.95;2.88;;;13.00;99.90;;;;;;5072543;28;20062;-86
2023/05/10 08:43:11;;;;;;;3.67;2.35;;;13.00;99.90;;;;;;5106733;28;20053;-86
2023/05/10 08:45:47;;;;;;;5.30;3.20;;;13.00;99.90;;;;;;5089282;28;20552;-87
2023/05/10 08:48:13;;;;;;;7.97;3.53;;;13.00;99.90;;;;;;5089322;28;20044;-86
2023/05/10 08:50:40;;;;;;;3.92;3.17;;;13.10;99.90;;;;;;5107289;28;20044;-86
2023/05/10 08:53:10;;;;;;;9.88;3.17;;;13.10;99.90;;;;;;5089018;28;20043;-87
2023/05/10 08:55:38;;;;;;;4.10;2.40;;;13.10;99.90;;;;;;5089854;28;20050;-86
2023/05/10 08:58:05;;;;;;;2.30;1.75;;;13.10;99.90;;;;;;5090441;28;20044;-85
2023/05/10 09:00:31;;;;;;;2.40;1.85;;;13.10;99.90;;;;;;5089216;28;20039;-86
2023/05/10 09:03:00;;;;;;;3.90;2.25;;;13.20;99.90;;;;;;5107151;28;20077;-85
2023/05/10 09:05:26;;;;;;;6.53;3.20;;;13.10;99.90;;;;;;5088187;28;20051;-87
2023/05/10 09:07:52;;;;;;;4.18;2.47;;;13.10;99.90;;;;;;5090534;28;20044;-86
2023/05/10 09:10:19;;;;;;;5.25;3.08;;;13.10;99.90;;;;;;5088668;28;20074;-87
2023/05/10 09:12:45;;;;;;;5.78;2.58;;;13.10;99.90;;;;;;5106607;28;20044;-86
2023/05/10 09:15:14;;;;;;;4.45;2.67;;;13.10;99.90;;;;;;5089071;28;20032;-86
2023/05/10 09:17:41;;;;;;;3.45;2.40;;;13.20;99.90;;;;;;5105868;28;20097;-86
2023/05/10 09:20:07;;;;;;;4.70;2.65;;;13.30;99.90;;;;;;5089480;28;20090;-88
2023/05/10 09:22:33;;;;;;;3.63;2.35;;;13.40;99.90;;;;;;5104408;28;20044;-87
2023/05/10 09:25:10;;;;;;;4.90;4.30;;;13.40;99.90;;;;;;5106446;28;20039;-87
2023/05/10 09:27:37;;;;;;;5.57;2.38;;;13.50;99.90;;;;;;5088465;28;20105;-87
2023/05/10 09:30:05;;;;;;;3.42;2.60;;;13.50;99.90;;;;;;5105601;28;20056;-88
2023/05/10 09:32:41;;;;;;;5.90;4.18;;;13.60;99.90;;;;;;5089158;28;20083;-87
2023/05/10 09:35:12;;;;;;;5.53;3.45;;;13.70;99.90;;;;;;5087865;28;20047;-86
2023/05/10 09:37:42;;;;;;;6.25;3.50;;;13.80;99.90;;;;;;5107107;28;20047;-86
2023/05/10 09:40:18;;;;;;;3.38;2.92;;;13.80;99.90;;;;;;5087709;28;20066;-85
2023/05/10 09:42:58;;;;;;;2.90;2.42;;;13.90;99.90;;;;;;5105896;28;20356;-87
2023/05/10 09:45:30;;;;;;;4.70;2.22;;;14.10;99.90;;;;;;5088766;28;20372;-85
2023/05/10 09:47:57;;;;;;;4.78;3.08;;;14.20;99.90;;;;;;5087356;28;20108;-85
2023/05/10 09:50:23;;;;;;;3.90;3.25;;;14.20;99.90;;;;;;5089425;28;20104;-86
2023/05/10 09:52:59;;;;;;;4.95;3.47;;;14.30;99.90;;;;;;5087200;28;20043;-85
2023/05/10 09:55:41;;;;;;;13.68;3.47;;;14.30;99.90;;;;;;5106228;28;20079;-86
2023/05/10 09:58:10;;;;;;;5.05;2.63;;;14.30;99.90;;;;;;5105615;28;20047;-86
2023/05/10 10:00:47;;;;;;;2.30;1.92;;;14.30;99.90;;;;;;5087707;28;20090;-85
2023/05/10 10:03:19;;;;;;;6.03;2.53;;;14.20;99.90;;;;;;5106489;28;20055;-86
2023/05/10 10:05:46;;;;;;;4.95;2.67;;;14.20;99.90;;;;;;5104663;28;20046;-85
2023/05/10 10:08:13;;;;;;;4.72;2.53;;;14.20;99.90;;;;;;5105761;28;20078;-85
2023/05/10 10:10:44;;;;;;;3.60;1.92;;;14.20;99.90;;;;;;5087743;28;20040;-87
2023/05/10 10:13:10;;;;;;;2.63;2.20;;;14.30;99.90;;;;;;5087931;28;20768;-89
2023/05/10 10:15:36;;;;;;;4.03;2.13;;;14.40;99.90;;;;;;5088968;28;20042;-87
2023/05/10 10:18:03;;;;;;;2.70;2.13;;;14.50;99.90;;;;;;5103590;28;20485;-86
2023/05/10 10:20:29;;;;;;;5.00;2.45;;;14.60;99.90;;;;;;5089191;28;20088;-86
2023/05/10 10:22:55;;;;;;;2.80;1.98;;;14.70;99.90;;;;;;5086771;28;20123;-85
2023/05/10 10:25:21;;;;;;;3.83;2.30;;;14.80;99.90;;;;;;5105377;28;20121;-84
2023/05/10 10:27:53;;;;;;;2.65;2.28;;;14.90;99.90;;;;;;5104538;28;20043;-86
2023/05/10 10:30:29;;;;;;;3.38;2.63;;;15.00;99.90;;;;;;5104337;28;20062;-85
2023/05/10 10:33:10;;;;;;;3.78;1.95;;;15.10;99.90;;;;;;5105562;28;20044;-83
2023/05/10 10:35:36;;;;;;;3.60;2.00;;;15.20;99.90;;;;;;5103638;28;20393;-84
2023/05/10 10:38:02;;;;;;;2.17;1.95;;;15.30;99.90;;;;;;5071726;28;20040;-84
2023/05/10 10:40:33;;;;;;;1.80;1.65;;;15.40;99.90;;;;;;5103972;28;20056;-82
2023/05/10 10:43:22;;;;;;;4.10;1.70;;;15.40;99.90;;;;;;5106159;28;20416;-82
2023/05/10 10:46:17;;;;;;;2.58;1.92;;;15.50;99.90;;;;;;5122625;27;20598;-83
2023/05/10 10:49:08;;;;;;;2.45;2.03;;;15.60;99.90;;;;;;5105116;28;20046;-84
2023/05/10 10:51:37;;;;;;;3.75;1.85;;;15.70;99.90;;;;;;5104421;28;20051;-82
2023/05/10 10:54:12;;;;;;;4.15;2.50;;;15.70;99.90;;;;;;5106421;28;20528;-82
2023/05/10 10:56:38;;;;;;;5.22;2.40;;;15.80;99.90;;;;;;5104357;28;20043;-84
2023/05/10 10:59:04;;;;;;;3.88;2.88;;;15.80;99.90;;;;;;5088176;28;20062;-84
2023/05/10 11:01:34;;;;;;;4.97;2.88;;;15.90;99.90;;;;;;5086507;28;20142;-84
2023/05/10 11:04:00;;;;;;;3.90;3.10;;;16.00;99.90;;;;;;5104770;28;20573;-86
2023/05/10 11:06:34;;;;;;;5.70;2.85;;;15.90;99.90;;;;;;5103468;28;20127;-86
2023/05/10 11:09:06;;;;;;;3.78;2.85;;;15.80;99.90;;;;;;5103837;28;20094;-86
2023/05/10 11:11:32;;;;;;;7.28;3.20;;;15.80;99.90;;;;;;5088187;28;20046;-86
2023/05/10 11:14:04;;;;;;;7.55;3.50;;;15.70;99.90;;;;;;5102780;28;20047;-86
2023/05/10 11:16:41;;;;;;;3.83;3.35;;;15.60;99.90;;;;;;5104824;28;20058;-87
2023/05/10 11:19:10;;;;;;;4.65;3.80;;;15.60;99.90;;;;;;5103588;28;20058;-86
2023/05/10 11:21:48;;;;;;;5.45;4.55;;;15.60;99.90;;;;;;5086850;28;20028;-86
2023/05/10 11:24:19;;;;;;;6.15;5.03;;;15.50;99.90;;;;;;5104451;28;20036;-87
2023/05/10 11:26:45;;;;;;;5.60;4.53;;;15.40;99.90;;;;;;5086208;28;20071;-85
2023/05/10 11:29:12;;;;;;;5.50;4.43;;;15.40;99.90;;;;;;5087822;28;20601;-86
2023/05/10 11:31:43;;;;;;;8.32;4.80;;;15.50;99.90;;;;;;5102995;28;20044;-91
2023/05/10 11:34:09;;;;;;;7.63;5.30;;;15.70;99.90;;;;;;5086908;28;20052;-88
2023/05/10 11:36:36;;;;;;;9.93;5.35;;;15.90;99.90;;;;;;5086648;28;20054;-88
2023/05/10 11:39:04;;;;;;;10.80;5.78;;;15.90;99.90;;;;;;5086373;28;20040;-88
2023/05/10 11:41:30;;;;;;;5.60;4.90;;;16.00;99.90;;;;;;5088074;28;20048;-88
2023/05/10 11:43:57;;;;;;;9.25;5.90;;;16.00;99.90;;;;;;5102679;28;20112;-88
2023/05/10 11:46:26;;;;;;;6.32;5.07;;;15.90;99.90;;;;;;5088214;28;20047;-88
2023/05/10 11:49:06;;;;;;;9.93;5.60;;;15.90;99.90;;;;;;5085773;28;20130;-88
2023/05/10 11:51:36;;;;;;;6.93;5.20;;;16.00;99.90;;;;;;5086902;28;20084;-89
2023/05/10 11:54:09;;;;;;;10.15;6.40;;;16.10;99.90;;;;;;5104482;28;20039;-88
2023/05/10 11:56:35;;;;;;;9.52;5.68;;;16.10;99.90;;;;;;5085797;28;20085;-88
2023/05/10 11:59:02;;;;;;;9.45;5.80;;;16.10;99.90;;;;;;5088335;28;20069;-89
2023/05/10 12:01:28;;;;;;;9.25;5.63;;;16.20;99.90;;;;;;5103134;28;20040;-88
2023/05/10 12:03:59;;;;;;;8.70;5.68;;;16.20;99.90;;;;;;5087423;28;20043;-88
2023/05/10 12:06:35;;;;;;;6.90;5.07;;;16.30;99.90;;;;;;5070130;28;20090;-88
2023/05/10 12:09:06;;;;;;;13.63;5.78;;;16.20;99.90;;;;;;5086171;28;20055;-88
2023/05/10 12:11:32;;;;;;;7.18;5.45;;;16.20;99.90;;;;;;5087605;28;20040;-88
2023/05/10 12:13:58;;;;;;;7.30;5.85;;;16.70;99.90;;;;;;5086101;28;20131;-88
2023/05/10 12:16:25;;;;;;;9.07;5.90;;;15.90;99.90;;;;;;5104444;28;20130;-88
2023/05/10 12:18:53;;;;;;;9.60;6.18;;;15.90;99.90;;;;;;5103343;28;20380;-88
2023/05/10 12:21:20;;;;;;;9.70;7.32;;;15.80;99.90;;;;;;5107150;28;20035;-89
2023/05/10 12:23:47;;;;;;;11.27;7.00;;;15.80;99.90;;;;;;5090458;28;20040;-89
2023/05/10 12:26:13;;;;;;;14.68;7.32;;;15.70;99.90;;;;;;5073642;28;20137;-89
2023/05/10 12:28:41;;;;;;;12.43;7.25;;;15.60;99.90;;;;;;5108203;28;20094;-89
2023/05/10 12:31:08;;;;;;;12.20;8.15;;;15.50;99.90;;;;;;5106575;28;20051;-89
2023/05/10 12:33:45;;;;;;;14.18;8.15;;;15.40;99.90;;;;;;5091563;28;20592;-88
2023/05/10 12:36:15;;;;;;;12.73;7.78;;;15.30;99.90;;;;;;5089372;28;20093;-88
2023/05/10 12:38:43;;;;;;;10.98;7.72;;;15.30;99.90;;;;;;5090918;28;20388;-88
2023/05/10 12:41:16;;;;;;;11.48;7.50;;;15.30;99.90;;;;;;5073896;28;20040;-84
2023/05/10 12:43:42;;;;;;;9.55;7.30;;;15.30;99.90;;;;;;5106572;28;20052;-84
2023/05/10 12:46:17;;;;;;;8.13;7.28;;;15.30;99.90;;;;;;5107787;28;20392;-84
2023/05/10 12:48:45;;;;;;;10.48;7.80;;;15.30;99.90;;;;;;5071667;28;20051;-88
2023/05/10 12:51:16;;;;;;;8.82;7.13;;;15.20;99.90;;;;;;5124615;27;20079;-87